Time;durP1;ratioP1;P1;durP2;ratioP2;P2;SDS_P1;SDS_P2;PMS_P1;PMS_P2;Temp;Humidity;BMP_temperature;BMP_pressure;BME280_temperature;BME280_humidity;BME280_pressure;Samples;Min_cycle;Max_cycle;Signal;HPM_P1;HPM_P2
2023/08/18 00:02:23;;;;;;;;;;;;;;;21.59;64.77;100635.00;4957868;28;7292;-69
2023/08/18 00:04:49;;;;;;;;;;;;;;;21.57;64.53;100639.31;4961212;28;6973;-70
2023/08/18 00:07:15;;;;;;;;;;;;;;;21.54;64.84;100636.72;4963062;28;6784;-71
2023/08/18 00:09:43;;;;;;;;;;;;;;;21.52;64.95;100631.47;4979590;28;6962;-70
2023/08/18 00:12:09;;;;;;;;;;;;;;;21.50;64.91;100628.00;4944873;28;6852;-69
2023/08/18 00:14:35;;;;;;;;;;;;;;;21.45;64.91;100620.13;4960855;28;6995;-70
2023/08/18 00:17:00;;;;;;;;;;;;;;;21.44;65.20;100623.63;4957339;28;7101;-72
2023/08/18 00:19:26;;;;;;;;;;;;;;;21.42;65.02;100624.47;4976058;28;7094;-69
2023/08/18 00:21:51;;;;;;;;;;;;;;;21.40;64.80;100620.97;4962737;28;7075;-72
2023/08/18 00:24:17;;;;;;;;;;;;;;;21.38;65.03;100623.56;4960808;28;6852;-70
2023/08/18 00:26:42;;;;;;;;;;;;;;;21.37;65.28;100621.81;4972366;28;6964;-70
2023/08/18 00:29:08;;;;;;;;;;;;;;;21.35;65.11;100610.50;4955406;28;6863;-69
2023/08/18 00:31:33;;;;;;;;;;;;;;;21.36;65.67;100622.69;4950268;28;7338;-69
2023/08/18 00:33:59;;;;;;;;;;;;;;;21.38;65.30;100620.94;4953297;28;8896;-69
2023/08/18 00:36:25;;;;;;;;;;;;;;;21.39;65.40;100622.69;4978126;28;8664;-70
2023/08/18 00:38:51;;;;;;;;;;;;;;;21.44;65.58;100636.66;4974697;28;6799;-70
2023/08/18 00:41:17;;;;;;;;;;;;;;;21.49;65.77;100637.53;4939934;28;6867;-70
2023/08/18 00:43:42;;;;;;;;;;;;;;;21.54;65.95;100634.97;4958300;28;6800;-72
2023/08/18 00:46:09;;;;;;;;;;;;;;;21.59;65.97;100637.59;4978988;28;6851;-72
2023/08/18 00:48:36;;;;;;;;;;;;;;;21.64;65.85;100635.91;4943032;28;7179;-72
2023/08/18 00:51:02;;;;;;;;;;;;;;;21.68;66.17;100627.25;4975649;28;7031;-71
2023/08/18 00:53:30;;;;;;;;;;;;;;;21.72;65.91;100634.22;4941974;28;7032;-71
2023/08/18 00:55:55;;;;;;;;;;;;;;;21.76;65.72;100630.78;4962558;28;7110;-72
2023/08/18 00:58:21;;;;;;;;;;;;;;;21.82;65.81;100623.84;4964090;28;6820;-73
2023/08/18 01:00:51;;;;;;;;;;;;;;;21.84;65.63;100622.97;4960169;28;6996;-73
2023/08/18 01:03:18;;;;;;;;;;;;;;;21.88;65.67;100626.47;4957474;28;7104;-73
2023/08/18 01:05:44;;;;;;;;;;;;;;;21.91;65.80;100629.09;4960962;28;6860;-74
2023/08/18 01:08:09;;;;;;;;;;;;;;;21.95;65.87;100619.56;4961578;28;6934;-72
2023/08/18 01:10:51;;;;;;;;;;;;;;;21.97;65.77;100613.47;4977736;28;6784;-72
2023/08/18 01:13:36;;;;;;;;;;;;;;;21.99;65.51;100619.56;4960866;28;7389;-73
2023/08/18 01:16:06;;;;;;;;;;;;;;;22.01;66.01;100620.44;4959246;28;7241;-72
2023/08/18 01:18:34;;;;;;;;;;;;;;;22.03;65.93;100618.75;4956667;28;6796;-73
2023/08/18 01:21:02;;;;;;;;;;;;;;;22.05;65.91;100619.59;4968892;28;6815;-73
2023/08/18 01:23:40;;;;;;;;;;;;;;;22.08;65.74;100612.66;4944403;28;6812;-73
2023/08/18 01:26:06;;;;;;;;;;;;;;;22.08;65.72;100616.16;4986671;28;6796;-72
2023/08/18 01:28:33;;;;;;;;;;;;;;;22.09;65.49;100611.78;4962286;28;7217;-73
2023/08/18 01:31:04;;;;;;;;;;;;;;;22.09;65.60;100606.56;4978921;28;6804;-73
2023/08/18 01:33:41;;;;;;;;;;;;;;;22.11;65.31;100600.47;4961250;28;6955;-73
2023/08/18 01:36:11;;;;;;;;;;;;;;;22.12;65.59;100596.16;4957050;28;7024;-73
2023/08/18 01:38:38;;;;;;;;;;;;;;;22.12;65.61;100602.22;4941820;28;6884;-73
2023/08/18 01:41:08;;;;;;;;;;;;;;;22.15;65.36;100596.16;4961631;28;6816;-73
2023/08/18 01:43:33;;;;;;;;;;;;;;;22.13;65.37;100588.31;4942220;28;7135;-73
2023/08/18 01:46:02;;;;;;;;;;;;;;;22.13;65.22;100583.09;4968988;28;6819;-73
2023/08/18 01:48:27;;;;;;;;;;;;;;;22.12;65.50;100580.50;4962328;28;6868;-73
2023/08/18 01:50:53;;;;;;;;;;;;;;;22.13;65.68;100580.47;4960440;28;7525;-74
2023/08/18 01:53:18;;;;;;;;;;;;;;;22.13;65.73;100588.31;4960901;28;8038;-73
2023/08/18 01:55:44;;;;;;;;;;;;;;;22.12;65.45;100585.72;4958669;28;6799;-74
2023/08/18 01:58:09;;;;;;;;;;;;;;;22.12;65.53;100583.09;4978856;28;7051;-73
2023/08/18 02:00:35;;;;;;;;;;;;;;;22.12;65.71;100585.72;4976074;28;6800;-73
2023/08/18 02:03:00;;;;;;;;;;;;;;;22.11;65.84;100573.50;4959293;28;6812;-73
2023/08/18 02:05:26;;;;;;;;;;;;;;;22.10;65.58;100572.66;4963418;28;6787;-73
2023/08/18 02:07:51;;;;;;;;;;;;;;;22.11;65.56;100576.09;4939770;28;7001;-73
2023/08/18 02:10:18;;;;;;;;;;;;;;;22.12;65.59;100575.28;4976980;28;6787;-73
2023/08/18 02:12:43;;;;;;;;;;;;;;;22.11;65.54;100577.00;4971931;28;7178;-74
2023/08/18 02:15:09;;;;;;;;;;;;;;;22.11;66.10;100573.50;4973582;28;6784;-73
2023/08/18 02:17:34;;;;;;;;;;;;;;;22.11;65.80;100578.72;4961330;28;6856;-73
2023/08/18 02:20:00;;;;;;;;;;;;;;;22.12;65.64;100580.50;4961699;28;6859;-73
2023/08/18 02:22:26;;;;;;;;;;;;;;;22.11;65.89;100573.50;4959009;28;7366;-74
2023/08/18 02:24:52;;;;;;;;;;;;;;;22.14;65.90;100581.38;4944163;28;7236;-74
2023/08/18 02:27:17;;;;;;;;;;;;;;;22.13;65.78;100577.00;4977092;28;6795;-74
2023/08/18 02:29:43;;;;;;;;;;;;;;;22.14;65.67;100579.59;4980628;28;7237;-73
2023/08/18 02:32:08;;;;;;;;;;;;;;;22.11;65.44;100570.88;4979857;28;6788;-73
2023/08/18 02:34:34;;;;;;;;;;;;;;;22.09;65.33;100575.25;4982517;28;6965;-73
2023/08/18 02:36:59;;;;;;;;;;;;;;;22.08;65.45;100578.72;4967822;28;6768;-73
2023/08/18 02:39:25;;;;;;;;;;;;;;;22.05;65.61;100571.75;4981960;28;6856;-73
2023/08/18 02:41:54;;;;;;;;;;;;;;;22.05;65.43;100575.25;4955186;28;6791;-73
2023/08/18 02:44:20;;;;;;;;;;;;;;;22.03;65.45;100571.75;4982338;28;7024;-72
2023/08/18 02:46:47;;;;;;;;;;;;;;;22.01;65.22;100576.09;4966992;28;6812;-73
2023/08/18 02:49:12;;;;;;;;;;;;;;;21.98;65.60;100567.41;4965683;28;6804;-73
2023/08/18 02:51:38;;;;;;;;;;;;;;;21.96;65.64;100561.28;4975025;28;7288;-73
2023/08/18 02:54:04;;;;;;;;;;;;;;;21.94;65.79;100560.41;4963959;28;7239;-73
2023/08/18 02:56:31;;;;;;;;;;;;;;;21.96;65.99;100564.78;4963602;28;6870;-70
2023/08/18 02:58:57;;;;;;;;;;;;;;;21.95;65.69;100562.16;4980941;28;7288;-74
2023/08/18 03:01:22;;;;;;;;;;;;;;;21.91;65.21;100562.16;4960767;28;6795;-73
2023/08/18 03:03:48;;;;;;;;;;;;;;;21.89;65.73;100566.50;4964042;28;6784;-75
2023/08/18 03:06:13;;;;;;;;;;;;;;;21.89;65.79;100570.81;4964891;28;6792;-74
2023/08/18 03:08:39;;;;;;;;;;;;;;;21.84;65.78;100576.03;4980707;28;7059;-74
2023/08/18 03:11:05;;;;;;;;;;;;;;;21.84;65.57;100575.16;4960015;28;6791;-74
2023/08/18 03:13:31;;;;;;;;;;;;;;;21.83;65.85;100574.28;4978425;28;6804;-73
2023/08/18 03:15:56;;;;;;;;;;;;;;;21.80;65.68;100571.69;4979871;28;6792;-74
2023/08/18 03:18:22;;;;;;;;;;;;;;;21.77;65.19;100569.91;4979468;28;6852;-72
2023/08/18 03:20:49;;;;;;;;;;;;;;;21.75;65.82;100566.44;4961285;28;6975;-74
2023/08/18 03:23:18;;;;;;;;;;;;;;;21.73;65.70;100570.78;4973933;28;6863;-73
2023/08/18 03:25:44;;;;;;;;;;;;;;;21.74;65.85;100571.63;4943305;28;6884;-72
2023/08/18 03:28:12;;;;;;;;;;;;;;;21.71;65.79;100567.28;4962326;28;6958;-74
2023/08/18 03:30:39;;;;;;;;;;;;;;;21.71;65.69;100572.50;4976023;28;6788;-75
2023/08/18 03:33:04;;;;;;;;;;;;;;;21.74;65.98;100580.34;4946339;28;6998;-72
2023/08/18 03:35:32;;;;;;;;;;;;;;;21.74;65.92;100569.91;4942067;28;7051;-75
2023/08/18 03:38:04;;;;;;;;;;;;;;;21.73;65.97;100573.38;4947940;28;7501;-74
2023/08/18 03:40:29;;;;;;;;;;;;;;;21.73;66.13;100573.38;4928075;28;7252;-70
2023/08/18 03:42:55;;;;;;;;;;;;;;;21.74;65.85;100580.34;4947333;28;6959;-70
2023/08/18 03:45:20;;;;;;;;;;;;;;;21.74;66.13;100569.91;4960257;28;6876;-70
2023/08/18 03:47:46;;;;;;;;;;;;;;;21.74;66.05;100569.91;4971669;28;7527;-69
2023/08/18 03:50:11;;;;;;;;;;;;;;;21.72;65.88;100565.53;4959861;28;6792;-70
2023/08/18 03:52:37;;;;;;;;;;;;;;;21.72;65.94;100575.97;4962286;28;6980;-70
2023/08/18 03:55:04;;;;;;;;;;;;;;;21.71;65.85;100569.88;4974655;28;6875;-70
2023/08/18 03:57:30;;;;;;;;;;;;;;;21.72;66.13;100571.63;4952240;28;6823;-70
2023/08/18 03:59:55;;;;;;;;;;;;;;;21.74;66.47;100569.91;4954669;28;6933;-72
2023/08/18 04:02:22;;;;;;;;;;;;;;;21.76;66.09;100565.56;4961861;28;6807;-69
2023/08/18 04:04:47;;;;;;;;;;;;;;;21.75;66.04;100566.44;4944314;28;6864;-70
2023/08/18 04:07:13;;;;;;;;;;;;;;;21.76;65.85;100568.19;4959608;28;6788;-69
2023/08/18 04:09:38;;;;;;;;;;;;;;;21.77;66.09;100569.91;4963063;28;6938;-70
2023/08/18 04:12:04;;;;;;;;;;;;;;;21.78;66.01;100570.81;4958660;28;7067;-70
2023/08/18 04:14:29;;;;;;;;;;;;;;;21.76;66.16;100568.19;4952818;28;7341;-70
2023/08/18 04:16:55;;;;;;;;;;;;;;;21.75;66.17;100566.44;4970835;28;6792;-69
2023/08/18 04:19:20;;;;;;;;;;;;;;;21.75;65.83;100570.78;4963031;28;6800;-71
2023/08/18 04:21:46;;;;;;;;;;;;;;;21.75;66.07;100566.44;4978546;28;7205;-70
2023/08/18 04:24:13;;;;;;;;;;;;;;;21.74;66.18;100564.69;4974954;28;6780;-72
2023/08/18 04:26:39;;;;;;;;;;;;;;;21.76;66.08;100568.19;4944569;28;6884;-70
2023/08/18 04:29:05;;;;;;;;;;;;;;;21.77;66.45;100564.69;4963131;28;6816;-72
2023/08/18 04:31:30;;;;;;;;;;;;;;;21.82;66.29;100567.31;4972694;28;6993;-70
2023/08/18 04:33:56;;;;;;;;;;;;;;;21.83;66.52;100571.69;4947597;28;6983;-70
2023/08/18 04:36:22;;;;;;;;;;;;;;;21.85;66.23;100577.75;4953484;28;7185;-72
2023/08/18 04:38:47;;;;;;;;;;;;;;;21.90;66.61;100575.19;4974384;28;6990;-70
2023/08/18 04:41:13;;;;;;;;;;;;;;;21.94;66.36;100579.56;4956306;28;7164;-70
2023/08/18 04:43:38;;;;;;;;;;;;;;;21.96;66.29;100575.22;4977247;28;6806;-70
2023/08/18 04:46:04;;;;;;;;;;;;;;;21.95;66.42;100583.91;4973084;28;6883;-69
2023/08/18 04:48:29;;;;;;;;;;;;;;;21.94;66.35;100570.84;4975891;28;7041;-69
2023/08/18 04:50:54;;;;;;;;;;;;;;;21.90;66.35;100581.28;4961575;28;7048;-70
2023/08/18 04:53:20;;;;;;;;;;;;;;;21.88;66.09;100576.91;4946527;28;6958;-69
2023/08/18 04:55:45;;;;;;;;;;;;;;;21.84;66.57;100570.81;4975267;28;6792;-72
2023/08/18 04:58:15;;;;;;;;;;;;;;;21.84;66.34;100567.34;4958976;28;6860;-70
2023/08/18 05:00:44;;;;;;;;;;;;;;;21.83;66.46;100576.03;4945751;28;7000;-70
2023/08/18 05:03:10;;;;;;;;;;;;;;;21.80;66.31;100571.69;4971743;28;6927;-69
2023/08/18 05:06:03;;;;;;;;;;;;;;;21.76;66.57;100573.41;4959270;28;7228;-72
2023/08/18 05:08:30;;;;;;;;;;;;;;;21.75;66.49;100570.78;4934830;28;6966;-69
2023/08/18 05:10:57;;;;;;;;;;;;;;;21.75;66.25;100570.78;4944042;28;7000;-69
2023/08/18 05:13:23;;;;;;;;;;;;;;;21.76;66.20;100573.41;4956033;28;7146;-69
2023/08/18 05:15:49;;;;;;;;;;;;;;;21.74;66.45;100569.91;4962162;28;6788;-73
2023/08/18 05:18:14;;;;;;;;;;;;;;;21.74;66.64;100569.91;4959368;28;6976;-69
2023/08/18 05:20:40;;;;;;;;;;;;;;;21.75;66.78;100571.66;4963026;28;6795;-69
2023/08/18 05:23:05;;;;;;;;;;;;;;;21.76;66.53;100570.78;4947245;28;7233;-71
2023/08/18 05:25:31;;;;;;;;;;;;;;;21.77;66.32;100575.13;4937748;28;6784;-72
2023/08/18 05:27:57;;;;;;;;;;;;;;;21.77;66.60;100564.69;4959735;28;6831;-69
2023/08/18 05:30:22;;;;;;;;;;;;;;;21.82;66.83;100571.66;4959611;28;6792;-71
2023/08/18 05:32:48;;;;;;;;;;;;;;;21.81;66.89;100568.19;4961577;28;6927;-70
2023/08/18 05:35:13;;;;;;;;;;;;;;;21.85;67.07;100569.09;4974192;28;7123;-71
2023/08/18 05:37:39;;;;;;;;;;;;;;;21.91;67.06;100566.47;4973078;28;6804;-69
2023/08/18 05:40:05;;;;;;;;;;;;;;;21.95;67.20;100563.03;4958337;28;7007;-68
2023/08/18 05:42:31;;;;;;;;;;;;;;;22.00;66.56;100565.66;4944626;28;7239;-70
2023/08/18 05:44:56;;;;;;;;;;;;;;;22.04;66.45;100568.28;4965017;28;6788;-69
2023/08/18 05:47:21;;;;;;;;;;;;;;;22.09;66.91;100572.63;4947633;28;7017;-69
2023/08/18 05:49:47;;;;;;;;;;;;;;;22.10;66.85;100571.75;4964844;28;6796;-69
2023/08/18 05:52:12;;;;;;;;;;;;;;;22.11;66.87;100570.88;4976348;28;7253;-69
2023/08/18 05:54:38;;;;;;;;;;;;;;;22.15;66.56;100565.69;4963197;28;6963;-69
2023/08/18 05:57:03;;;;;;;;;;;;;;;22.20;66.49;100563.09;4962918;28;6794;-70
2023/08/18 05:59:32;;;;;;;;;;;;;;;22.23;66.77;100559.63;4964163;28;6780;-71
2023/08/18 06:01:57;;;;;;;;;;;;;;;22.27;66.25;100564.84;4946181;28;7572;-68
2023/08/18 06:04:23;;;;;;;;;;;;;;;22.29;66.28;100567.47;4970215;28;6926;-70
2023/08/18 06:06:48;;;;;;;;;;;;;;;22.29;66.05;100557.88;4967274;28;6832;-69
2023/08/18 06:09:14;;;;;;;;;;;;;;;22.31;66.42;100566.63;4958133;28;7236;-72
2023/08/18 06:11:39;;;;;;;;;;;;;;;22.32;65.83;100563.13;4964204;28;6776;-71
2023/08/18 06:14:05;;;;;;;;;;;;;;;22.34;66.44;100561.41;4965331;28;8977;-72
2023/08/18 06:16:30;;;;;;;;;;;;;;;22.39;66.54;100576.19;4964427;28;7193;-72
2023/08/18 06:18:56;;;;;;;;;;;;;;;22.42;66.14;100566.63;4982576;28;6840;-71
2023/08/18 06:21:21;;;;;;;;;;;;;;;22.48;66.82;100568.38;4961590;28;6780;-72
2023/08/18 06:23:47;;;;;;;;;;;;;;;22.52;66.25;100561.44;4941064;28;7335;-70
2023/08/18 06:26:12;;;;;;;;;;;;;;;22.55;66.01;100564.03;4978310;28;7352;-72
2023/08/18 06:28:38;;;;;;;;;;;;;;;22.57;66.06;100560.56;4946617;28;7068;-71
2023/08/18 06:31:05;;;;;;;;;;;;;;;22.57;65.94;100560.56;4955310;28;6934;-71
2023/08/18 06:33:30;;;;;;;;;;;;;;;22.58;65.76;100559.69;4963968;28;6804;-71
2023/08/18 06:35:57;;;;;;;;;;;;;;;22.61;65.81;100575.41;4980626;28;7334;-72
2023/08/18 06:38:23;;;;;;;;;;;;;;;22.63;65.81;100570.16;4974962;28;6832;-71
2023/08/18 06:40:48;;;;;;;;;;;;;;;22.67;66.19;100568.41;4962539;28;7531;-71
2023/08/18 06:43:13;;;;;;;;;;;;;;;22.72;65.98;100571.91;4979152;28;7138;-71
2023/08/18 06:45:39;;;;;;;;;;;;;;;22.74;65.64;100570.16;4955780;28;6852;-71
2023/08/18 06:48:04;;;;;;;;;;;;;;;22.76;66.05;100568.41;4971742;28;7264;-71
2023/08/18 06:50:30;;;;;;;;;;;;;;;22.81;66.28;100574.53;4962611;28;7119;-72
2023/08/18 06:52:55;;;;;;;;;;;;;;;22.84;66.17;100560.56;4976331;28;6808;-71
2023/08/18 06:55:21;;;;;;;;;;;;;;;22.85;65.50;100562.34;4962457;28;10491;-71
2023/08/18 06:57:46;;;;;;;;;;;;;;;22.83;65.30;100558.84;4963355;28;6800;-70
2023/08/18 07:00:13;;;;;;;;;;;;;;;22.80;65.78;100564.97;4980185;28;6959;-71
2023/08/18 07:02:39;;;;;;;;;;;;;;;22.83;65.67;100564.94;4961885;28;7036;-71
2023/08/18 07:05:07;;;;;;;;;;;;;;;22.87;65.46;100555.38;4949925;28;6781;-71
2023/08/18 07:07:35;;;;;;;;;;;;;;;22.89;65.59;100557.13;4939666;28;7365;-71
2023/08/18 07:10:01;;;;;;;;;;;;;;;22.88;65.70;100552.72;4959763;28;7064;-71
2023/08/18 07:12:26;;;;;;;;;;;;;;;22.89;65.66;100545.78;4954981;28;6784;-72
2023/08/18 07:14:52;;;;;;;;;;;;;;;22.92;65.58;100547.53;4944778;28;7041;-71
2023/08/18 07:17:17;;;;;;;;;;;;;;;22.95;66.02;100542.28;4961631;28;6846;-71
2023/08/18 07:19:43;;;;;;;;;;;;;;;22.97;65.63;100546.66;4979678;28;6787;-72
2023/08/18 07:22:09;;;;;;;;;;;;;;;22.99;65.62;100541.44;4963595;28;7847;-72
2023/08/18 07:24:35;;;;;;;;;;;;;;;23.01;65.52;100542.28;4976506;28;7243;-72
2023/08/18 07:27:03;;;;;;;;;;;;;;;23.07;65.84;100538.78;4978834;28;6795;-72
2023/08/18 07:29:28;;;;;;;;;;;;;;;23.13;65.47;100546.59;4962815;28;6804;-72
2023/08/18 07:31:55;;;;;;;;;;;;;;;23.19;65.87;100556.22;4963615;28;7099;-71
2023/08/18 07:34:20;;;;;;;;;;;;;;;23.22;65.09;100558.81;4949495;28;6991;-71
2023/08/18 07:36:46;;;;;;;;;;;;;;;23.21;65.64;100565.75;4938276;28;6971;-71
2023/08/18 07:39:11;;;;;;;;;;;;;;;23.19;64.94;100566.66;4959999;28;6788;-72
2023/08/18 07:41:43;;;;;;;;;;;;;;;23.17;64.92;100571.88;4973110;28;6922;-71
2023/08/18 07:44:09;;;;;;;;;;;;;;;23.13;65.20;100572.75;4958408;28;6819;-72
2023/08/18 07:46:36;;;;;;;;;;;;;;;23.21;66.18;100570.16;4963503;28;6796;-72
2023/08/18 07:49:02;;;;;;;;;;;;;;;23.26;65.16;100573.59;4943935;28;6996;-72
2023/08/18 07:51:29;;;;;;;;;;;;;;;23.32;65.20;100576.25;4954402;28;7274;-72
2023/08/18 07:53:54;;;;;;;;;;;;;;;23.36;65.15;100569.28;4947405;28;6831;-72
2023/08/18 07:56:20;;;;;;;;;;;;;;;23.37;65.26;100564.06;4975277;28;7061;-71
2023/08/18 07:58:45;;;;;;;;;;;;;;;23.37;64.92;100569.28;4958481;28;7437;-71
2023/08/18 08:01:11;;;;;;;;;;;;;;;23.43;65.59;100571.00;4974672;28;7384;-72
2023/08/18 08:03:36;;;;;;;;;;;;;;;23.52;65.33;100570.97;4978124;28;6979;-72
2023/08/18 08:06:04;;;;;;;;;;;;;;;23.61;65.68;100570.06;4956211;28;7388;-72
2023/08/18 08:08:30;;;;;;;;;;;;;;;23.70;65.10;100567.41;4937523;28;7577;-72
2023/08/18 08:10:56;;;;;;;;;;;;;;;23.77;65.61;100568.25;4973938;28;7466;-72
2023/08/18 08:13:22;;;;;;;;;;;;;;;23.87;65.45;100561.25;4939169;28;6772;-72
2023/08/18 08:15:47;;;;;;;;;;;;;;;23.92;64.79;100571.69;4944049;28;7015;-73
2023/08/18 08:18:15;;;;;;;;;;;;;;;23.99;64.66;100576.00;4961478;28;7155;-72
2023/08/18 08:20:41;;;;;;;;;;;;;;;24.06;64.98;100577.75;4957529;28;7506;-71
2023/08/18 08:23:07;;;;;;;;;;;;;;;24.16;64.62;100583.81;4956354;28;7249;-71
2023/08/18 08:25:33;;;;;;;;;;;;;;;24.29;65.25;100588.97;4972521;28;7278;-73
2023/08/18 08:27:59;;;;;;;;;;;;;;;24.41;64.40;100567.94;4954941;28;7340;-72
2023/08/18 08:30:24;;;;;;;;;;;;;;;24.52;64.73;100567.88;4973720;28;7900;-70
2023/08/18 08:32:50;;;;;;;;;;;;;;;24.60;63.84;100575.69;4938024;28;7314;-72
2023/08/18 08:35:16;;;;;;;;;;;;;;;24.65;63.26;100576.53;4960446;28;6784;-70
2023/08/18 08:37:41;;;;;;;;;;;;;;;24.67;63.43;100574.75;4961467;28;6882;-71
2023/08/18 08:40:10;;;;;;;;;;;;;;;24.65;62.74;100571.28;4955837;28;6848;-72
2023/08/18 08:42:35;;;;;;;;;;;;;;;24.68;63.51;100571.25;4944552;28;6816;-70
2023/08/18 08:45:01;;;;;;;;;;;;;;;24.74;63.27;100576.44;4981144;28;6784;-72
2023/08/18 08:47:26;;;;;;;;;;;;;;;24.79;63.20;100579.91;4962390;28;6781;-71
2023/08/18 08:50:00;;;;;;;;;;;;;;;24.86;63.03;100580.72;4961842;28;6780;-71
2023/08/18 08:52:27;;;;;;;;;;;;;;;24.91;62.63;100575.44;4958971;28;6807;-73
2023/08/18 08:54:58;;;;;;;;;;;;;;;25.04;62.71;100570.97;4979641;28;6863;-71
2023/08/18 08:57:24;;;;;;;;;;;;;;;25.12;62.21;100576.16;4945500;28;7389;-71
2023/08/18 08:59:50;;;;;;;;;;;;;;;25.17;62.42;100577.84;4943359;28;6856;-70
2023/08/18 09:02:15;;;;;;;;;;;;;;;25.19;62.21;100576.06;4978306;28;6950;-72
2023/08/18 09:04:41;;;;;;;;;;;;;;;25.23;62.04;100576.91;4932873;28;6934;-69
2023/08/18 09:07:10;;;;;;;;;;;;;;;25.29;61.63;100574.22;4978285;28;6848;-70
2023/08/18 09:09:35;;;;;;;;;;;;;;;25.38;62.30;100573.25;4940005;28;7205;-72
2023/08/18 09:12:05;;;;;;;;;;;;;;;25.53;62.27;100569.63;4977529;28;6804;-71
2023/08/18 09:14:37;;;;;;;;;;;;;;;25.68;61.84;100576.44;4962021;28;7044;-70
2023/08/18 09:17:03;;;;;;;;;;;;;;;25.79;61.53;100571.09;4959626;28;6808;-72
2023/08/18 09:19:28;;;;;;;;;;;;;;;25.90;60.91;100579.69;4964213;28;6772;-69
2023/08/18 09:21:56;;;;;;;;;;;;;;;26.00;60.93;100576.94;4981463;28;6843;-71
2023/08/18 09:24:22;;;;;;;;;;;;;;;26.05;60.08;100575.09;4944961;28;6979;-71
2023/08/18 09:26:48;;;;;;;;;;;;;;;26.11;60.40;100571.53;4971179;28;7533;-71
2023/08/18 09:29:14;;;;;;;;;;;;;;;26.21;60.35;100570.53;4959431;28;6965;-72
2023/08/18 09:31:39;;;;;;;;;;;;;;;26.28;60.29;100572.19;4942058;28;7190;-70
2023/08/18 09:34:06;;;;;;;;;;;;;;;26.34;59.99;100574.72;4962016;28;6841;-70
2023/08/18 09:36:31;;;;;;;;;;;;;;;26.44;60.00;100558.81;4970177;28;7088;-71
2023/08/18 09:38:57;;;;;;;;;;;;;;;26.54;59.57;100564.78;4962781;28;7000;-73
2023/08/18 09:41:23;;;;;;;;;;;;;;;26.65;59.49;100552.34;4954919;28;7006;-71
2023/08/18 09:43:49;;;;;;;;;;;;;;;26.83;59.71;100560.81;4944969;28;6939;-69
2023/08/18 09:46:16;;;;;;;;;;;;;;;26.96;59.08;100551.88;4960821;28;6792;-69
2023/08/18 09:48:46;;;;;;;;;;;;;;;27.10;58.46;100548.97;4962215;28;7022;-70
2023/08/18 09:51:12;;;;;;;;;;;;;;;27.24;58.47;100553.97;4960521;28;6807;-72
2023/08/18 09:53:45;;;;;;;;;;;;;;;27.41;59.14;100543.13;4978349;28;8857;-69
2023/08/18 09:56:13;;;;;;;;;;;;;;;27.67;58.32;100546.16;4957308;28;7212;-71
2023/08/18 09:59:27;;;;;;;;;;;;;;;27.94;57.63;100543.81;4944009;28;6899;-70
2023/08/18 10:01:53;;;;;;;;;;;;;;;28.18;57.45;100539.75;4968696;28;7112;-70
2023/08/18 10:04:24;;;;;;;;;;;;;;;28.38;56.90;100539.31;4944105;28;7876;-72
2023/08/18 10:06:51;;;;;;;;;;;;;;;28.56;57.06;100537.13;4943454;28;6808;-71
2023/08/18 10:09:17;;;;;;;;;;;;;;;28.72;56.18;100542.03;4952580;28;7029;-71
2023/08/18 10:11:43;;;;;;;;;;;;;;;28.91;55.39;100538.03;4938890;28;10969;-70
2023/08/18 10:14:09;;;;;;;;;;;;;;;29.08;55.88;100534.09;4962087;28;6908;-72
2023/08/18 10:16:36;;;;;;;;;;;;;;;29.24;55.50;100530.09;4944859;28;6864;-71
2023/08/18 10:19:02;;;;;;;;;;;;;;;29.43;55.19;100528.72;4959030;28;7137;-71
2023/08/18 10:21:28;;;;;;;;;;;;;;;29.66;54.39;100528.94;4973548;28;8256;-73
2023/08/18 10:23:53;;;;;;;;;;;;;;;30.18;54.61;100523.00;4976906;28;7410;-70
2023/08/18 10:26:22;;;;;;;;;;;;;;;30.75;53.52;100519.38;4956485;28;6973;-73
2023/08/18 10:28:48;;;;;;;;;;;;;;;31.03;52.23;100524.53;4976838;28;7107;-69
2023/08/18 10:31:14;;;;;;;;;;;;;;;31.39;51.88;100525.06;4963431;28;6807;-69
2023/08/18 10:33:42;;;;;;;;;;;;;;;31.69;51.45;100519.53;4977728;28;7381;-72
2023/08/18 10:36:07;;;;;;;;;;;;;;;31.99;50.15;100517.50;4959843;28;6884;-72
2023/08/18 10:38:36;;;;;;;;;;;;;;;32.54;49.53;100507.34;4978248;28;8503;-69
2023/08/18 10:41:01;;;;;;;;;;;;;;;33.14;48.27;100506.53;4944480;28;6813;-72
2023/08/18 10:43:28;;;;;;;;;;;;;;;33.75;47.51;100503.78;4959718;28;6864;-69
2023/08/18 10:45:59;;;;;;;;;;;;;;;34.46;46.54;100497.66;4973277;28;6982;-70
2023/08/18 10:48:32;;;;;;;;;;;;;;;34.90;44.12;100488.31;4943750;28;6860;-70
2023/08/18 10:50:59;;;;;;;;;;;;;;;34.75;43.62;100479.34;4938820;28;6828;-70
2023/08/18 10:53:24;;;;;;;;;;;;;;;34.66;43.87;100477.16;4945617;28;6968;-71
2023/08/18 10:55:55;;;;;;;;;;;;;;;34.73;42.57;100467.94;4959742;28;7206;-74
2023/08/18 10:58:21;;;;;;;;;;;;;;;34.68;43.06;100470.00;4976339;28;8431;-74
2023/08/18 11:00:47;;;;;;;;;;;;;;;34.78;42.71;100474.81;4939683;28;7374;-72
2023/08/18 11:03:13;;;;;;;;;;;;;;;35.00;42.63;100472.72;4978740;28;6808;-74
2023/08/18 11:05:39;;;;;;;;;;;;;;;35.34;42.05;100458.53;4947551;28;6808;-73
2023/08/18 11:08:09;;;;;;;;;;;;;;;35.81;41.78;100460.34;4947186;28;7468;-75
2023/08/18 11:10:37;;;;;;;;;;;;;;;36.06;40.68;100453.63;4964576;28;7007;-74
2023/08/18 11:13:03;;;;;;;;;;;;;;;36.13;40.59;100451.44;4964445;28;6791;-73
2023/08/18 11:15:29;;;;;;;;;;;;;;;36.32;40.24;100451.22;4959541;28;6820;-74
2023/08/18 11:17:55;;;;;;;;;;;;;;;36.66;39.53;100451.84;4976107;28;6941;-74
2023/08/18 11:20:22;;;;;;;;;;;;;;;37.07;39.39;100450.25;4961170;28;6800;-72
2023/08/18 11:22:52;;;;;;;;;;;;;;;37.36;38.50;100442.19;4947138;28;6994;-74
2023/08/18 11:25:21;;;;;;;;;;;;;;;37.65;38.21;100443.94;4950377;28;6899;-74
2023/08/18 11:27:47;;;;;;;;;;;;;;;38.02;37.71;100446.84;4949194;28;6899;-75
2023/08/18 11:30:13;;;;;;;;;;;;;;;38.37;37.47;100437.38;4967928;28;7186;-75
2023/08/18 11:32:40;;;;;;;;;;;;;;;38.49;36.64;100438.38;4981756;28;11399;-74
2023/08/18 11:35:09;;;;;;;;;;;;;;;38.42;36.64;100429.03;4967229;28;6853;-73
2023/08/18 11:37:39;;;;;;;;;;;;;;;38.28;36.34;100433.53;4943264;28;7079;-74
2023/08/18 11:40:09;;;;;;;;;;;;;;;38.37;36.02;100433.84;4972028;28;7431;-73
2023/08/18 11:42:34;;;;;;;;;;;;;;;38.37;35.90;100433.84;4973145;28;6816;-75
2023/08/18 11:45:00;;;;;;;;;;;;;;;38.33;35.49;100419.81;4962623;28;6860;-74
2023/08/18 11:47:25;;;;;;;;;;;;;;;38.44;35.57;100419.06;4958470;28;6792;-74
2023/08/18 11:49:51;;;;;;;;;;;;;;;38.75;35.49;100427.66;4954827;28;8952;-72
2023/08/18 11:52:17;;;;;;;;;;;;;;;39.03;35.06;100420.34;4941691;28;7990;-75
2023/08/18 11:54:45;;;;;;;;;;;;;;;39.13;34.49;100426.75;4942648;28;7281;-73
2023/08/18 11:57:14;;;;;;;;;;;;;;;39.25;34.69;100422.31;4977831;28;6824;-74
2023/08/18 11:59:46;;;;;;;;;;;;;;;39.36;34.36;100416.16;4943055;28;6792;-74
2023/08/18 12:02:12;;;;;;;;;;;;;;;39.31;34.12;100416.50;4957714;28;7023;-74
2023/08/18 12:04:41;;;;;;;;;;;;;;;39.22;34.00;100414.50;4956706;28;6796;-75
2023/08/18 12:07:06;;;;;;;;;;;;;;;39.03;33.97;100415.00;4976231;28;6827;-75
2023/08/18 12:09:32;;;;;;;;;;;;;;;39.06;34.25;100405.84;4971992;28;6848;-75
2023/08/18 12:11:57;;;;;;;;;;;;;;;39.26;34.17;100409.78;4957783;28;6780;-75
2023/08/18 12:14:23;;;;;;;;;;;;;;;39.43;33.81;100412.09;4958077;28;6945;-74
2023/08/18 12:16:48;;;;;;;;;;;;;;;39.47;33.22;100401.13;4957303;28;6772;-73
2023/08/18 12:19:14;;;;;;;;;;;;;;;39.40;33.32;100401.53;4959098;28;6848;-73
2023/08/18 12:21:40;;;;;;;;;;;;;;;39.26;33.18;100404.41;4956711;28;7227;-73
2023/08/18 12:24:06;;;;;;;;;;;;;;;39.10;33.19;100404.69;4977844;28;6776;-75
2023/08/18 12:26:35;;;;;;;;;;;;;;;38.92;33.62;100402.34;4945656;28;7080;-74
2023/08/18 12:29:04;;;;;;;;;;;;;;;38.87;33.85;100405.34;4966519;28;7476;-73
2023/08/18 12:31:32;;;;;;;;;;;;;;;38.86;34.05;100395.59;4947218;28;7152;-73
2023/08/18 12:34:01;;;;;;;;;;;;;;;38.79;33.46;100394.31;4944989;28;7023;-74
2023/08/18 12:36:26;;;;;;;;;;;;;;;38.62;34.03;100396.38;4963824;28;6820;-73
2023/08/18 12:38:52;;;;;;;;;;;;;;;38.43;34.18;100395.94;4978188;28;6788;-73
2023/08/18 12:41:18;;;;;;;;;;;;;;;38.34;34.54;100397.44;4955218;28;6788;-74
2023/08/18 12:43:43;;;;;;;;;;;;;;;38.42;34.45;100394.22;4971441;28;7072;-74